Nicollet, Minnesota
Current Conditions -  °F | °C
As of 10:15 PM on Tuesday 25 Nov 2014 (Local Time) from KMKT Reporting Station
Scattered Clouds Scattered Clouds  
Wind Chill: 11°   Ceiling: Unl
Heat Index: 23°   Visibility: 10mi
Dew Point: 16°   Wind: 14mph
Humidity: 74%   Direction: 140°SE
Pressure: 29.98"   Gusts: NA
Location:  44.28°N, 94.19°W
Report Text: KMKT 260415Z AUTO 14012KT 10SM FEW050 SCT120 M05/M09 A2998 RMK AO1
Loading
Personal Weather Stations






























Interactive Weather Map New forecast layout! Learn more

10-Day Weather Forecast

Advertisements
Track Severe Weather on mobile